sensor_id;sensor_type;location;lat;lon;timestamp;P1;durP1;ratioP1;P2;durP2;ratioP2
39654;SDS011;25336;59.944;11.010;2023-10-13T00:01:54;3.70;;;1.10;;
39654;SDS011;25336;59.944;11.010;2023-10-13T00:04:28;2.45;;;1.08;;
39654;SDS011;25336;59.944;11.010;2023-10-13T00:06:54;1.25;;;1.08;;
39654;SDS011;25336;59.944;11.010;2023-10-13T00:09:25;3.05;;;1.20;;
39654;SDS011;25336;59.944;11.010;2023-10-13T00:11:57;4.60;;;1.42;;
39654;SDS011;25336;59.944;11.010;2023-10-13T00:14:24;2.17;;;1.23;;
39654;SDS011;25336;59.944;11.010;2023-10-13T00:16:59;3.45;;;1.10;;
39654;SDS011;25336;59.944;11.010;2023-10-13T00:19:28;4.07;;;1.42;;
39654;SDS011;25336;59.944;11.010;2023-10-13T00:22:03;1.42;;;1.00;;
39654;SDS011;25336;59.944;11.010;2023-10-13T00:24:39;2.13;;;1.13;;
39654;SDS011;25336;59.944;11.010;2023-10-13T00:27:10;3.03;;;1.10;;
39654;SDS011;25336;59.944;11.010;2023-10-13T00:30:06;1.88;;;1.02;;
39654;SDS011;25336;59.944;11.010;2023-10-13T00:32:48;2.95;;;1.38;;
39654;SDS011;25336;59.944;11.010;2023-10-13T00:35:25;4.13;;;1.50;;
39654;SDS011;25336;59.944;11.010;2023-10-13T00:38:00;2.15;;;0.93;;
39654;SDS011;25336;59.944;11.010;2023-10-13T00:40:38;2.83;;;1.10;;
39654;SDS011;25336;59.944;11.010;2023-10-13T00:43:04;4.38;;;1.52;;
39654;SDS011;25336;59.944;11.010;2023-10-13T00:48:32;4.85;;;1.75;;
39654;SDS011;25336;59.944;11.010;2023-10-13T00:51:03;2.83;;;1.10;;
39654;SDS011;25336;59.944;11.010;2023-10-13T00:53:32;2.95;;;1.33;;
39654;SDS011;25336;59.944;11.010;2023-10-13T00:56:02;2.13;;;1.00;;
39654;SDS011;25336;59.944;11.010;2023-10-13T00:58:43;4.60;;;1.63;;
39654;SDS011;25336;59.944;11.010;2023-10-13T01:01:11;1.38;;;0.90;;
39654;SDS011;25336;59.944;11.010;2023-10-13T01:03:57;2.67;;;1.00;;
39654;SDS011;25336;59.944;11.010;2023-10-13T01:06:24;1.73;;;1.00;;
39654;SDS011;25336;59.944;11.010;2023-10-13T01:08:59;1.95;;;0.98;;
39654;SDS011;25336;59.944;11.010;2023-10-13T01:11:42;2.20;;;0.90;;
39654;SDS011;25336;59.944;11.010;2023-10-13T01:14:17;4.95;;;1.20;;
39654;SDS011;25336;59.944;11.010;2023-10-13T01:16:44;2.05;;;1.10;;
39654;SDS011;25336;59.944;11.010;2023-10-13T01:19:14;1.77;;;1.25;;
39654;SDS011;25336;59.944;11.010;2023-10-13T01:21:44;0.98;;;0.95;;
39654;SDS011;25336;59.944;11.010;2023-10-13T01:24:12;2.97;;;1.23;;
39654;SDS011;25336;59.944;11.010;2023-10-13T01:26:43;3.72;;;1.23;;
39654;SDS011;25336;59.944;11.010;2023-10-13T01:29:09;2.50;;;1.00;;
39654;SDS011;25336;59.944;11.010;2023-10-13T01:31:39;1.83;;;1.27;;
39654;SDS011;25336;59.944;11.010;2023-10-13T01:34:16;2.10;;;1.15;;
39654;SDS011;25336;59.944;11.010;2023-10-13T01:36:47;1.75;;;1.00;;
39654;SDS011;25336;59.944;11.010;2023-10-13T01:39:18;3.13;;;0.90;;
39654;SDS011;25336;59.944;11.010;2023-10-13T01:41:57;4.03;;;1.35;;
39654;SDS011;25336;59.944;11.010;2023-10-13T01:44:24;1.75;;;1.13;;
39654;SDS011;25336;59.944;11.010;2023-10-13T01:49:34;2.42;;;0.98;;
39654;SDS011;25336;59.944;11.010;2023-10-13T01:52:13;2.63;;;1.42;;
39654;SDS011;25336;59.944;11.010;2023-10-13T01:54:42;3.58;;;0.90;;
39654;SDS011;25336;59.944;11.010;2023-10-13T01:57:10;1.73;;;0.90;;
39654;SDS011;25336;59.944;11.010;2023-10-13T01:59:43;1.65;;;1.00;;
39654;SDS011;25336;59.944;11.010;2023-10-13T02:02:12;3.13;;;0.93;;
39654;SDS011;25336;59.944;11.010;2023-10-13T02:04:39;1.73;;;1.10;;
39654;SDS011;25336;59.944;11.010;2023-10-13T02:07:14;1.33;;;1.20;;
39654;SDS011;25336;59.944;11.010;2023-10-13T02:09:40;3.08;;;1.10;;
39654;SDS011;25336;59.944;11.010;2023-10-13T02:12:08;5.18;;;1.30;;
39654;SDS011;25336;59.944;11.010;2023-10-13T02:14:37;2.95;;;1.30;;
39654;SDS011;25336;59.944;11.010;2023-10-13T02:17:03;1.80;;;1.08;;
39654;SDS011;25336;59.944;11.010;2023-10-13T02:19:40;3.15;;;1.13;;
39654;SDS011;25336;59.944;11.010;2023-10-13T02:22:10;1.77;;;1.00;;
39654;SDS011;25336;59.944;11.010;2023-10-13T02:24:37;1.55;;;0.90;;
39654;SDS011;25336;59.944;11.010;2023-10-13T02:27:06;2.47;;;1.30;;
39654;SDS011;25336;59.944;11.010;2023-10-13T02:29:39;3.10;;;1.10;;
39654;SDS011;25336;59.944;11.010;2023-10-13T02:32:06;3.28;;;1.00;;
39654;SDS011;25336;59.944;11.010;2023-10-13T02:34:44;1.95;;;1.05;;
39654;SDS011;25336;59.944;11.010;2023-10-13T02:37:10;2.90;;;1.05;;
39654;SDS011;25336;59.944;11.010;2023-10-13T02:39:37;1.48;;;0.98;;
39654;SDS011;25336;59.944;11.010;2023-10-13T02:42:06;4.72;;;1.10;;
39654;SDS011;25336;59.944;11.010;2023-10-13T02:44:32;2.38;;;1.30;;
39654;SDS011;25336;59.944;11.010;2023-10-13T02:47:02;2.65;;;1.10;;
39654;SDS011;25336;59.944;11.010;2023-10-13T02:49:38;3.90;;;2.03;;
39654;SDS011;25336;59.944;11.010;2023-10-13T02:52:08;5.90;;;1.10;;
39654;SDS011;25336;59.944;11.010;2023-10-13T02:54:38;1.83;;;1.20;;
39654;SDS011;25336;59.944;11.010;2023-10-13T02:57:16;4.78;;;1.27;;
39654;SDS011;25336;59.944;11.010;2023-10-13T02:59:42;2.05;;;1.15;;
39654;SDS011;25336;59.944;11.010;2023-10-13T03:02:15;5.13;;;1.10;;
39654;SDS011;25336;59.944;11.010;2023-10-13T03:07:17;3.63;;;1.27;;
39654;SDS011;25336;59.944;11.010;2023-10-13T03:09:51;3.88;;;1.20;;
39654;SDS011;25336;59.944;11.010;2023-10-13T03:12:17;5.63;;;1.33;;
39654;SDS011;25336;59.944;11.010;2023-10-13T03:14:44;2.42;;;1.20;;
39654;SDS011;25336;59.944;11.010;2023-10-13T03:17:13;1.67;;;1.35;;
39654;SDS011;25336;59.944;11.010;2023-10-13T03:19:45;3.10;;;1.52;;
39654;SDS011;25336;59.944;11.010;2023-10-13T03:22:19;5.25;;;1.60;;
39654;SDS011;25336;59.944;11.010;2023-10-13T03:24:55;3.83;;;1.27;;
39654;SDS011;25336;59.944;11.010;2023-10-13T03:27:25;3.15;;;1.30;;
39654;SDS011;25336;59.944;11.010;2023-10-13T03:30:04;3.53;;;1.67;;
39654;SDS011;25336;59.944;11.010;2023-10-13T03:32:35;2.15;;;1.35;;
39654;SDS011;25336;59.944;11.010;2023-10-13T03:35:08;8.70;;;1.30;;
39654;SDS011;25336;59.944;11.010;2023-10-13T03:37:57;2.95;;;1.10;;
39654;SDS011;25336;59.944;11.010;2023-10-13T03:40:23;6.82;;;1.10;;
39654;SDS011;25336;59.944;11.010;2023-10-13T03:42:56;1.45;;;1.20;;
39654;SDS011;25336;59.944;11.010;2023-10-13T03:45:39;2.08;;;1.35;;
39654;SDS011;25336;59.944;11.010;2023-10-13T03:48:11;2.83;;;1.15;;
39654;SDS011;25336;59.944;11.010;2023-10-13T03:50:54;2.17;;;1.20;;
39654;SDS011;25336;59.944;11.010;2023-10-13T03:53:33;5.40;;;1.42;;
39654;SDS011;25336;59.944;11.010;2023-10-13T03:56:00;4.25;;;1.52;;
39654;SDS011;25336;59.944;11.010;2023-10-13T03:58:36;4.65;;;1.58;;
39654;SDS011;25336;59.944;11.010;2023-10-13T04:01:10;2.78;;;1.13;;
39654;SDS011;25336;59.944;11.010;2023-10-13T04:03:39;2.15;;;1.10;;
39654;SDS011;25336;59.944;11.010;2023-10-13T04:06:22;4.93;;;1.20;;
39654;SDS011;25336;59.944;11.010;2023-10-13T04:09:09;4.65;;;1.30;;
39654;SDS011;25336;59.944;11.010;2023-10-13T04:12:00;2.13;;;1.17;;
39654;SDS011;25336;59.944;11.010;2023-10-13T04:17:18;1.52;;;1.17;;
39654;SDS011;25336;59.944;11.010;2023-10-13T04:19:56;3.10;;;1.17;;
39654;SDS011;25336;59.944;11.010;2023-10-13T04:22:41;3.15;;;1.55;;
39654;SDS011;25336;59.944;11.010;2023-10-13T04:25:17;4.78;;;1.63;;
39654;SDS011;25336;59.944;11.010;2023-10-13T04:28:06;2.25;;;1.25;;
39654;SDS011;25336;59.944;11.010;2023-10-13T04:30:46;8.50;;;2.20;;
39654;SDS011;25336;59.944;11.010;2023-10-13T04:36:04;7.63;;;1.50;;
39654;SDS011;25336;59.944;11.010;2023-10-13T04:38:47;4.97;;;1.52;;
39654;SDS011;25336;59.944;11.010;2023-10-13T04:41:33;3.60;;;1.13;;
39654;SDS011;25336;59.944;11.010;2023-10-13T04:44:03;5.57;;;1.45;;
39654;SDS011;25336;59.944;11.010;2023-10-13T04:46:49;6.90;;;1.38;;
39654;SDS011;25336;59.944;11.010;2023-10-13T04:49:15;3.42;;;1.35;;
39654;SDS011;25336;59.944;11.010;2023-10-13T04:52:00;5.57;;;1.92;;
39654;SDS011;25336;59.944;11.010;2023-10-13T04:54:36;4.55;;;1.30;;
39654;SDS011;25336;59.944;11.010;2023-10-13T04:57:19;5.45;;;1.88;;
39654;SDS011;25336;59.944;11.010;2023-10-13T04:59:53;8.93;;;1.87;;
39654;SDS011;25336;59.944;11.010;2023-10-13T05:02:42;3.20;;;1.40;;
39654;SDS011;25336;59.944;11.010;2023-10-13T05:05:24;5.80;;;1.25;;
39654;SDS011;25336;59.944;11.010;2023-10-13T05:07:50;3.83;;;1.50;;
39654;SDS011;25336;59.944;11.010;2023-10-13T05:10:36;5.50;;;1.50;;
39654;SDS011;25336;59.944;11.010;2023-10-13T05:13:21;7.40;;;1.88;;
39654;SDS011;25336;59.944;11.010;2023-10-13T05:16:05;5.28;;;1.80;;
39654;SDS011;25336;59.944;11.010;2023-10-13T05:18:50;7.93;;;2.67;;
39654;SDS011;25336;59.944;11.010;2023-10-13T05:21:34;7.80;;;1.85;;
39654;SDS011;25336;59.944;11.010;2023-10-13T05:24:19;2.50;;;1.38;;
39654;SDS011;25336;59.944;11.010;2023-10-13T05:27:03;9.05;;;2.15;;
39654;SDS011;25336;59.944;11.010;2023-10-13T05:29:47;5.75;;;1.58;;
39654;SDS011;25336;59.944;11.010;2023-10-13T05:32:32;4.75;;;1.85;;
39654;SDS011;25336;59.944;11.010;2023-10-13T05:35:19;5.90;;;1.33;;
39654;SDS011;25336;59.944;11.010;2023-10-13T05:38:04;5.13;;;1.60;;
39654;SDS011;25336;59.944;11.010;2023-10-13T05:43:43;6.68;;;2.00;;
39654;SDS011;25336;59.944;11.010;2023-10-13T05:46:28;3.47;;;1.65;;
39654;SDS011;25336;59.944;11.010;2023-10-13T05:49:03;7.60;;;2.00;;
39654;SDS011;25336;59.944;11.010;2023-10-13T05:51:42;8.10;;;1.95;;
39654;SDS011;25336;59.944;11.010;2023-10-13T05:54:09;7.63;;;2.40;;
39654;SDS011;25336;59.944;11.010;2023-10-13T05:56:42;7.70;;;2.88;;
39654;SDS011;25336;59.944;11.010;2023-10-13T05:59:27;4.22;;;2.03;;
39654;SDS011;25336;59.944;11.010;2023-10-13T06:02:12;6.47;;;2.28;;
39654;SDS011;25336;59.944;11.010;2023-10-13T06:05:00;4.55;;;2.30;;
39654;SDS011;25336;59.944;11.010;2023-10-13T06:07:45;5.13;;;2.30;;
39654;SDS011;25336;59.944;11.010;2023-10-13T06:10:30;10.15;;;3.13;;
39654;SDS011;25336;59.944;11.010;2023-10-13T06:13:14;6.63;;;2.55;;
39654;SDS011;25336;59.944;11.010;2023-10-13T06:15:58;3.88;;;1.88;;
39654;SDS011;25336;59.944;11.010;2023-10-13T06:18:43;6.70;;;2.72;;
39654;SDS011;25336;59.944;11.010;2023-10-13T06:21:27;6.07;;;2.70;;
39654;SDS011;25336;59.944;11.010;2023-10-13T06:24:11;5.32;;;2.33;;
39654;SDS011;25336;59.944;11.010;2023-10-13T06:26:56;5.90;;;2.65;;
39654;SDS011;25336;59.944;11.010;2023-10-13T06:29:40;6.80;;;2.50;;
39654;SDS011;25336;59.944;11.010;2023-10-13T06:32:06;9.27;;;2.65;;
39654;SDS011;25336;59.944;11.010;2023-10-13T06:34:37;9.38;;;2.80;;
39654;SDS011;25336;59.944;11.010;2023-10-13T06:37:07;5.15;;;2.53;;
39654;SDS011;25336;59.944;11.010;2023-10-13T06:39:52;4.85;;;2.08;;
39654;SDS011;25336;59.944;11.010;2023-10-13T06:42:22;5.25;;;1.85;;
39654;SDS011;25336;59.944;11.010;2023-10-13T06:44:52;4.27;;;2.40;;
39654;SDS011;25336;59.944;11.010;2023-10-13T06:47:19;8.13;;;2.53;;
39654;SDS011;25336;59.944;11.010;2023-10-13T06:49:45;14.25;;;2.95;;
39654;SDS011;25336;59.944;11.010;2023-10-13T06:52:13;6.50;;;2.33;;
39654;SDS011;25336;59.944;11.010;2023-10-13T06:54:41;4.97;;;2.22;;
39654;SDS011;25336;59.944;11.010;2023-10-13T06:57:08;8.75;;;2.30;;
39654;SDS011;25336;59.944;11.010;2023-10-13T06:59:39;10.75;;;2.38;;
39654;SDS011;25336;59.944;11.010;2023-10-13T07:02:06;9.27;;;2.42;;
39654;SDS011;25336;59.944;11.010;2023-10-13T07:04:34;9.10;;;2.13;;
39654;SDS011;25336;59.944;11.010;2023-10-13T07:07:04;5.75;;;1.70;;
39654;SDS011;25336;59.944;11.010;2023-10-13T07:09:35;10.23;;;2.45;;
39654;SDS011;25336;59.944;11.010;2023-10-13T07:12:14;7.95;;;2.33;;
39654;SDS011;25336;59.944;11.010;2023-10-13T07:14:53;8.75;;;2.97;;
39654;SDS011;25336;59.944;11.010;2023-10-13T07:17:39;5.55;;;2.10;;
39654;SDS011;25336;59.944;11.010;2023-10-13T07:20:09;4.30;;;1.83;;
39654;SDS011;25336;59.944;11.010;2023-10-13T07:22:48;9.95;;;3.30;;
39654;SDS011;25336;59.944;11.010;2023-10-13T07:25:23;6.68;;;3.40;;
39654;SDS011;25336;59.944;11.010;2023-10-13T07:27:50;18.50;;;5.43;;
39654;SDS011;25336;59.944;11.010;2023-10-13T07:30:17;11.35;;;3.88;;
39654;SDS011;25336;59.944;11.010;2023-10-13T07:32:45;7.38;;;2.60;;
39654;SDS011;25336;59.944;11.010;2023-10-13T07:35:12;9.10;;;2.03;;
39654;SDS011;25336;59.944;11.010;2023-10-13T07:37:41;7.07;;;2.47;;
39654;SDS011;25336;59.944;11.010;2023-10-13T07:40:10;15.43;;;3.08;;
39654;SDS011;25336;59.944;11.010;2023-10-13T07:42:51;8.80;;;2.40;;
39654;SDS011;25336;59.944;11.010;2023-10-13T07:45:17;8.50;;;2.00;;
39654;SDS011;25336;59.944;11.010;2023-10-13T07:47:47;6.70;;;2.10;;
39654;SDS011;25336;59.944;11.010;2023-10-13T07:50:13;9.05;;;2.17;;
39654;SDS011;25336;59.944;11.010;2023-10-13T07:52:39;10.95;;;2.45;;
39654;SDS011;25336;59.944;11.010;2023-10-13T07:55:27;5.22;;;1.90;;
39654;SDS011;25336;59.944;11.010;2023-10-13T07:57:57;6.22;;;2.58;;
39654;SDS011;25336;59.944;11.010;2023-10-13T08:00:24;7.95;;;2.13;;
39654;SDS011;25336;59.944;11.010;2023-10-13T08:03:11;9.50;;;2.28;;
39654;SDS011;25336;59.944;11.010;2023-10-13T08:05:40;7.18;;;2.22;;
39654;SDS011;25336;59.944;11.010;2023-10-13T08:08:29;5.63;;;1.88;;
39654;SDS011;25336;59.944;11.010;2023-10-13T08:11:07;6.50;;;2.15;;
39654;SDS011;25336;59.944;11.010;2023-10-13T08:13:43;5.00;;;1.83;;
39654;SDS011;25336;59.944;11.010;2023-10-13T08:16:12;5.28;;;1.90;;
39654;SDS011;25336;59.944;11.010;2023-10-13T08:18:49;7.80;;;2.80;;
39654;SDS011;25336;59.944;11.010;2023-10-13T08:21:15;10.60;;;3.10;;
39654;SDS011;25336;59.944;11.010;2023-10-13T08:23:43;6.72;;;2.17;;
39654;SDS011;25336;59.944;11.010;2023-10-13T08:26:21;6.18;;;1.83;;
39654;SDS011;25336;59.944;11.010;2023-10-13T08:29:06;5.97;;;1.63;;
39654;SDS011;25336;59.944;11.010;2023-10-13T08:31:50;6.72;;;2.10;;
39654;SDS011;25336;59.944;11.010;2023-10-13T08:34:39;8.13;;;2.03;;
39654;SDS011;25336;59.944;11.010;2023-10-13T08:37:28;6.75;;;2.13;;
39654;SDS011;25336;59.944;11.010;2023-10-13T08:39:58;7.65;;;1.73;;
39654;SDS011;25336;59.944;11.010;2023-10-13T08:47:34;3.97;;;1.58;;
39654;SDS011;25336;59.944;11.010;2023-10-13T08:50:02;9.52;;;1.55;;
39654;SDS011;25336;59.944;11.010;2023-10-13T08:52:48;6.32;;;2.17;;
39654;SDS011;25336;59.944;11.010;2023-10-13T08:55:14;5.22;;;2.20;;
39654;SDS011;25336;59.944;11.010;2023-10-13T08:57:59;6.70;;;1.80;;
39654;SDS011;25336;59.944;11.010;2023-10-13T09:00:38;7.05;;;1.83;;
39654;SDS011;25336;59.944;11.010;2023-10-13T09:03:24;6.60;;;2.13;;
39654;SDS011;25336;59.944;11.010;2023-10-13T09:06:04;6.15;;;2.63;;
39654;SDS011;25336;59.944;11.010;2023-10-13T09:08:34;7.47;;;2.60;;
39654;SDS011;25336;59.944;11.010;2023-10-13T09:11:18;8.38;;;2.80;;
39654;SDS011;25336;59.944;11.010;2023-10-13T09:13:51;6.90;;;2.08;;
39654;SDS011;25336;59.944;11.010;2023-10-13T09:16:17;6.50;;;2.22;;
39654;SDS011;25336;59.944;11.010;2023-10-13T09:19:09;5.00;;;2.33;;
39654;SDS011;25336;59.944;11.010;2023-10-13T09:21:37;8.57;;;2.67;;
39654;SDS011;25336;59.944;11.010;2023-10-13T09:24:13;4.07;;;1.80;;
39654;SDS011;25336;59.944;11.010;2023-10-13T09:26:47;3.85;;;1.75;;
39654;SDS011;25336;59.944;11.010;2023-10-13T09:29:18;3.90;;;1.42;;
39654;SDS011;25336;59.944;11.010;2023-10-13T09:31:45;4.85;;;1.45;;
39654;SDS011;25336;59.944;11.010;2023-10-13T09:34:22;4.90;;;2.22;;
39654;SDS011;25336;59.944;11.010;2023-10-13T09:36:57;4.35;;;1.52;;
39654;SDS011;25336;59.944;11.010;2023-10-13T09:39:24;3.90;;;1.33;;
39654;SDS011;25336;59.944;11.010;2023-10-13T09:42:05;4.20;;;1.58;;
39654;SDS011;25336;59.944;11.010;2023-10-13T09:44:35;4.28;;;1.45;;
39654;SDS011;25336;59.944;11.010;2023-10-13T09:47:05;5.28;;;1.77;;
39654;SDS011;25336;59.944;11.010;2023-10-13T09:49:43;4.88;;;1.33;;
39654;SDS011;25336;59.944;11.010;2023-10-13T09:52:14;3.70;;;1.70;;
39654;SDS011;25336;59.944;11.010;2023-10-13T09:54:58;4.80;;;1.77;;
39654;SDS011;25336;59.944;11.010;2023-10-13T09:57:36;5.13;;;1.80;;
39654;SDS011;25336;59.944;11.010;2023-10-13T10:00:12;7.28;;;1.80;;
39654;SDS011;25336;59.944;11.010;2023-10-13T10:02:54;5.63;;;1.90;;
39654;SDS011;25336;59.944;11.010;2023-10-13T10:05:27;5.50;;;1.80;;
39654;SDS011;25336;59.944;11.010;2023-10-13T10:07:59;8.38;;;2.35;;
39654;SDS011;25336;59.944;11.010;2023-10-13T10:10:27;6.47;;;2.17;;
39654;SDS011;25336;59.944;11.010;2023-10-13T10:13:21;5.88;;;1.80;;
39654;SDS011;25336;59.944;11.010;2023-10-13T10:16:00;6.07;;;2.33;;
39654;SDS011;25336;59.944;11.010;2023-10-13T10:18:39;8.68;;;2.80;;
39654;SDS011;25336;59.944;11.010;2023-10-13T10:21:06;8.85;;;3.17;;
39654;SDS011;25336;59.944;11.010;2023-10-13T10:23:36;8.80;;;2.22;;
39654;SDS011;25336;59.944;11.010;2023-10-13T10:26:14;11.88;;;2.90;;
39654;SDS011;25336;59.944;11.010;2023-10-13T10:28:45;9.25;;;2.17;;
39654;SDS011;25336;59.944;11.010;2023-10-13T10:31:11;10.82;;;2.33;;
39654;SDS011;25336;59.944;11.010;2023-10-13T10:33:38;7.72;;;2.17;;
39654;SDS011;25336;59.944;11.010;2023-10-13T10:36:04;10.27;;;2.63;;
39654;SDS011;25336;59.944;11.010;2023-10-13T10:38:31;11.77;;;2.75;;
39654;SDS011;25336;59.944;11.010;2023-10-13T10:46:10;7.07;;;2.47;;
39654;SDS011;25336;59.944;11.010;2023-10-13T10:48:43;10.10;;;2.13;;
39654;SDS011;25336;59.944;11.010;2023-10-13T10:51:13;5.72;;;2.80;;
39654;SDS011;25336;59.944;11.010;2023-10-13T10:53:46;9.88;;;2.58;;
39654;SDS011;25336;59.944;11.010;2023-10-13T10:56:14;5.57;;;2.03;;
39654;SDS011;25336;59.944;11.010;2023-10-13T10:59:10;4.90;;;1.77;;
39654;SDS011;25336;59.944;11.010;2023-10-13T11:01:46;7.22;;;2.30;;
39654;SDS011;25336;59.944;11.010;2023-10-13T11:04:12;13.88;;;3.60;;
39654;SDS011;25336;59.944;11.010;2023-10-13T11:06:45;9.30;;;3.30;;
39654;SDS011;25336;59.944;11.010;2023-10-13T11:09:12;11.63;;;2.47;;
39654;SDS011;25336;59.944;11.010;2023-10-13T11:11:53;9.20;;;2.40;;
39654;SDS011;25336;59.944;11.010;2023-10-13T11:14:23;11.10;;;2.40;;
39654;SDS011;25336;59.944;11.010;2023-10-13T11:16:56;8.75;;;2.83;;
39654;SDS011;25336;59.944;11.010;2023-10-13T11:19:39;13.65;;;3.42;;
39654;SDS011;25336;59.944;11.010;2023-10-13T11:22:13;9.32;;;2.85;;
39654;SDS011;25336;59.944;11.010;2023-10-13T11:25:02;10.73;;;2.85;;
39654;SDS011;25336;59.944;11.010;2023-10-13T11:27:35;9.35;;;3.03;;
39654;SDS011;25336;59.944;11.010;2023-10-13T11:30:14;12.90;;;3.42;;
39654;SDS011;25336;59.944;11.010;2023-10-13T11:33:06;9.25;;;2.42;;
39654;SDS011;25336;59.944;11.010;2023-10-13T11:35:39;7.43;;;2.25;;
39654;SDS011;25336;59.944;11.010;2023-10-13T11:38:25;6.53;;;2.22;;
39654;SDS011;25336;59.944;11.010;2023-10-13T11:41:21;7.93;;;2.78;;
39654;SDS011;25336;59.944;11.010;2023-10-13T11:43:48;6.25;;;1.98;;
39654;SDS011;25336;59.944;11.010;2023-10-13T11:46:16;4.93;;;2.20;;
39654;SDS011;25336;59.944;11.010;2023-10-13T11:51:55;6.50;;;2.15;;
39654;SDS011;25336;59.944;11.010;2023-10-13T11:54:34;7.13;;;2.58;;
39654;SDS011;25336;59.944;11.010;2023-10-13T11:57:01;9.75;;;2.17;;
39654;SDS011;25336;59.944;11.010;2023-10-13T11:59:27;7.43;;;2.35;;
39654;SDS011;25336;59.944;11.010;2023-10-13T12:01:53;7.80;;;2.60;;
39654;SDS011;25336;59.944;11.010;2023-10-13T12:04:37;11.98;;;3.13;;
39654;SDS011;25336;59.944;11.010;2023-10-13T12:07:29;8.13;;;1.85;;
39654;SDS011;25336;59.944;11.010;2023-10-13T12:10:13;8.48;;;2.28;;
39654;SDS011;25336;59.944;11.010;2023-10-13T12:12:59;8.90;;;2.85;;
39654;SDS011;25336;59.944;11.010;2023-10-13T12:15:30;8.95;;;2.03;;
39654;SDS011;25336;59.944;11.010;2023-10-13T12:18:03;12.05;;;3.35;;
39654;SDS011;25336;59.944;11.010;2023-10-13T12:20:30;6.95;;;1.90;;
39654;SDS011;25336;59.944;11.010;2023-10-13T12:22:59;8.75;;;2.60;;
39654;SDS011;25336;59.944;11.010;2023-10-13T12:25:35;10.65;;;2.90;;
39654;SDS011;25336;59.944;11.010;2023-10-13T12:28:09;8.55;;;2.78;;
39654;SDS011;25336;59.944;11.010;2023-10-13T12:30:44;6.82;;;2.97;;
39654;SDS011;25336;59.944;11.010;2023-10-13T12:33:19;9.02;;;2.42;;
39654;SDS011;25336;59.944;11.010;2023-10-13T12:36:01;7.55;;;3.20;;
39654;SDS011;25336;59.944;11.010;2023-10-13T12:38:52;11.20;;;3.08;;
39654;SDS011;25336;59.944;11.010;2023-10-13T12:41:37;8.23;;;2.70;;
39654;SDS011;25336;59.944;11.010;2023-10-13T12:44:22;11.02;;;3.35;;
39654;SDS011;25336;59.944;11.010;2023-10-13T12:47:06;9.02;;;3.38;;
39654;SDS011;25336;59.944;11.010;2023-10-13T12:49:50;9.93;;;2.28;;
39654;SDS011;25336;59.944;11.010;2023-10-13T12:52:33;11.15;;;2.75;;
39654;SDS011;25336;59.944;11.010;2023-10-13T12:54:59;12.73;;;2.70;;
39654;SDS011;25336;59.944;11.010;2023-10-13T12:57:31;10.98;;;2.97;;
39654;SDS011;25336;59.944;11.010;2023-10-13T12:59:57;11.00;;;2.53;;
39654;SDS011;25336;59.944;11.010;2023-10-13T13:02:24;12.63;;;2.65;;
39654;SDS011;25336;59.944;11.010;2023-10-13T13:04:51;12.77;;;3.05;;
39654;SDS011;25336;59.944;11.010;2023-10-13T13:07:38;8.88;;;2.70;;
39654;SDS011;25336;59.944;11.010;2023-10-13T13:10:17;15.00;;;3.20;;
39654;SDS011;25336;59.944;11.010;2023-10-13T13:12:43;10.10;;;2.45;;
39654;SDS011;25336;59.944;11.010;2023-10-13T13:15:09;12.57;;;3.17;;
39654;SDS011;25336;59.944;11.010;2023-10-13T13:17:39;16.25;;;3.58;;
39654;SDS011;25336;59.944;11.010;2023-10-13T13:20:06;9.38;;;3.28;;
39654;SDS011;25336;59.944;11.010;2023-10-13T13:22:52;11.32;;;2.95;;
39654;SDS011;25336;59.944;11.010;2023-10-13T13:25:19;7.75;;;2.65;;
39654;SDS011;25336;59.944;11.010;2023-10-13T13:27:51;15.50;;;2.95;;
39654;SDS011;25336;59.944;11.010;2023-10-13T13:30:17;10.13;;;2.42;;
39654;SDS011;25336;59.944;11.010;2023-10-13T13:32:45;11.85;;;3.28;;
39654;SDS011;25336;59.944;11.010;2023-10-13T13:35:11;11.50;;;2.28;;
39654;SDS011;25336;59.944;11.010;2023-10-13T13:37:39;8.25;;;2.35;;
39654;SDS011;25336;59.944;11.010;2023-10-13T13:40:07;12.52;;;2.72;;
39654;SDS011;25336;59.944;11.010;2023-10-13T13:42:40;9.77;;;2.22;;
39654;SDS011;25336;59.944;11.010;2023-10-13T13:47:49;9.50;;;3.13;;
39654;SDS011;25336;59.944;11.010;2023-10-13T13:50:18;11.38;;;3.28;;
39654;SDS011;25336;59.944;11.010;2023-10-13T13:52:58;8.80;;;2.60;;
39654;SDS011;25336;59.944;11.010;2023-10-13T13:55:27;7.55;;;2.10;;
39654;SDS011;25336;59.944;11.010;2023-10-13T13:57:57;12.15;;;3.38;;
39654;SDS011;25336;59.944;11.010;2023-10-13T14:00:23;8.90;;;2.90;;
39654;SDS011;25336;59.944;11.010;2023-10-13T14:03:13;12.63;;;3.08;;
39654;SDS011;25336;59.944;11.010;2023-10-13T14:05:59;8.35;;;2.58;;
39654;SDS011;25336;59.944;11.010;2023-10-13T14:08:25;16.60;;;2.92;;
39654;SDS011;25336;59.944;11.010;2023-10-13T14:10:52;12.57;;;3.00;;
39654;SDS011;25336;59.944;11.010;2023-10-13T14:13:36;10.02;;;3.47;;
39654;SDS011;25336;59.944;11.010;2023-10-13T14:16:16;13.38;;;3.50;;
39654;SDS011;25336;59.944;11.010;2023-10-13T14:18:43;6.15;;;2.60;;
39654;SDS011;25336;59.944;11.010;2023-10-13T14:21:13;8.03;;;3.70;;
39654;SDS011;25336;59.944;11.010;2023-10-13T14:23:45;9.40;;;2.92;;
39654;SDS011;25336;59.944;11.010;2023-10-13T14:26:15;11.75;;;3.17;;
39654;SDS011;25336;59.944;11.010;2023-10-13T14:28:53;6.82;;;2.13;;
39654;SDS011;25336;59.944;11.010;2023-10-13T14:31:33;9.75;;;2.83;;
39654;SDS011;25336;59.944;11.010;2023-10-13T14:34:02;7.40;;;2.63;;
39654;SDS011;25336;59.944;11.010;2023-10-13T14:36:28;6.85;;;2.45;;
39654;SDS011;25336;59.944;11.010;2023-10-13T14:38:54;8.73;;;2.65;;
39654;SDS011;25336;59.944;11.010;2023-10-13T14:41:20;7.65;;;2.53;;
39654;SDS011;25336;59.944;11.010;2023-10-13T14:43:47;10.15;;;2.75;;
39654;SDS011;25336;59.944;11.010;2023-10-13T14:46:19;7.38;;;2.92;;
39654;SDS011;25336;59.944;11.010;2023-10-13T14:48:51;9.65;;;3.03;;
39654;SDS011;25336;59.944;11.010;2023-10-13T14:51:18;10.43;;;3.03;;
39654;SDS011;25336;59.944;11.010;2023-10-13T14:53:44;6.68;;;2.53;;
39654;SDS011;25336;59.944;11.010;2023-10-13T14:56:14;10.95;;;3.33;;
39654;SDS011;25336;59.944;11.010;2023-10-13T14:58:41;15.30;;;3.75;;
39654;SDS011;25336;59.944;11.010;2023-10-13T15:01:11;15.35;;;5.22;;
39654;SDS011;25336;59.944;11.010;2023-10-13T15:03:38;10.82;;;3.53;;
39654;SDS011;25336;59.944;11.010;2023-10-13T15:06:04;12.70;;;3.95;;
39654;SDS011;25336;59.944;11.010;2023-10-13T15:08:30;8.68;;;3.03;;
39654;SDS011;25336;59.944;11.010;2023-10-13T15:10:55;7.43;;;2.88;;
39654;SDS011;25336;59.944;11.010;2023-10-13T15:13:24;11.73;;;3.83;;
39654;SDS011;25336;59.944;11.010;2023-10-13T15:15:49;9.63;;;4.35;;
39654;SDS011;25336;59.944;11.010;2023-10-13T15:18:15;13.80;;;4.97;;
39654;SDS011;25336;59.944;11.010;2023-10-13T15:20:41;11.98;;;5.60;;
39654;SDS011;25336;59.944;11.010;2023-10-13T15:23:08;19.50;;;8.15;;
39654;SDS011;25336;59.944;11.010;2023-10-13T15:25:40;10.75;;;4.43;;
39654;SDS011;25336;59.944;11.010;2023-10-13T15:28:14;20.55;;;7.18;;
39654;SDS011;25336;59.944;11.010;2023-10-13T15:30:43;19.13;;;6.88;;
39654;SDS011;25336;59.944;11.010;2023-10-13T15:33:13;25.77;;;9.38;;
39654;SDS011;25336;59.944;11.010;2023-10-13T15:35:39;27.48;;;9.52;;
39654;SDS011;25336;59.944;11.010;2023-10-13T15:38:08;21.90;;;7.55;;
39654;SDS011;25336;59.944;11.010;2023-10-13T15:40:39;16.33;;;7.10;;
39654;SDS011;25336;59.944;11.010;2023-10-13T15:43:07;15.38;;;5.32;;
39654;SDS011;25336;59.944;11.010;2023-10-13T15:45:33;8.25;;;4.05;;